Time;durP1;ratioP1;P1;durP2;ratioP2;P2;SDS_P1;SDS_P2;PMS_P1;PMS_P2;Temp;Humidity;BMP_temperature;BMP_pressure;BME280_temperature;BME280_humidity;BME280_pressure;Samples;Min_cycle;Max_cycle;Signal;HPM_P1;HPM_P2
2024/01/11 00:02:09;;;;;;;10.67;6.50;;;-2.90;99.90;;;;;;5017494;28;20170;-68
2024/01/11 00:04:35;;;;;;;12.23;6.53;;;-2.90;99.90;;;;;;5014108;28;20192;-67
2024/01/11 00:07:00;;;;;;;11.57;6.70;;;-2.90;99.90;;;;;;5012499;28;20191;-68
2024/01/11 00:09:28;;;;;;;12.23;7.20;;;-3.00;99.90;;;;;;5002594;28;20174;-67
2024/01/11 00:11:54;;;;;;;11.43;7.33;;;-3.00;99.90;;;;;;5017627;28;20193;-69
2024/01/11 00:14:22;;;;;;;11.67;7.27;;;-3.00;99.90;;;;;;5016591;28;20200;-64
2024/01/11 00:16:49;;;;;;;12.87;7.67;;;-3.00;99.90;;;;;;5013254;28;20210;-63
2024/01/11 00:19:15;;;;;;;12.60;7.47;;;-3.00;99.90;;;;;;5014893;28;20221;-63
2024/01/11 00:21:41;;;;;;;12.03;7.33;;;-3.00;99.90;;;;;;5014479;28;20209;-63
2024/01/11 00:24:06;;;;;;;12.53;7.27;;;-3.00;99.90;;;;;;5017977;28;20178;-64
2024/01/11 00:26:34;;;;;;;14.13;7.87;;;-3.00;99.90;;;;;;5015649;28;20205;-63
2024/01/11 00:28:59;;;;;;;14.23;7.57;;;-3.00;99.90;;;;;;5010737;28;20185;-64
2024/01/11 00:31:27;;;;;;;12.47;7.20;;;-3.10;99.90;;;;;;5014644;28;20209;-63
2024/01/11 00:33:53;;;;;;;14.97;7.90;;;-3.10;99.90;;;;;;5016659;28;20178;-63
2024/01/11 00:36:22;;;;;;;14.80;8.10;;;-3.10;99.90;;;;;;5015447;28;20263;-64
2024/01/11 00:38:49;;;;;;;11.63;7.03;;;-3.10;99.90;;;;;;4993150;28;20233;-63
2024/01/11 00:41:15;;;;;;;11.77;7.17;;;-3.10;99.90;;;;;;5030904;28;20210;-63
2024/01/11 00:43:40;;;;;;;12.53;7.93;;;-3.20;99.90;;;;;;5012077;28;20266;-64
2024/01/11 00:46:06;;;;;;;13.20;8.50;;;-3.20;99.90;;;;;;5013603;28;20201;-61
2024/01/11 00:48:31;;;;;;;12.23;7.30;;;-3.10;99.90;;;;;;5014508;28;20289;-63
2024/01/11 00:50:57;;;;;;;12.30;7.23;;;-3.20;99.90;;;;;;5012632;28;20185;-63
2024/01/11 00:53:23;;;;;;;11.80;7.27;;;-3.20;99.90;;;;;;5014007;28;20201;-64
2024/01/11 00:55:48;;;;;;;10.57;6.53;;;-3.20;99.90;;;;;;5027056;28;20189;-63
2024/01/11 00:58:14;;;;;;;11.07;7.03;;;-3.20;99.90;;;;;;5015307;28;20328;-64
2024/01/11 01:00:39;;;;;;;11.10;6.57;;;-3.20;99.90;;;;;;5014621;28;20200;-64
2024/01/11 01:03:07;;;;;;;12.90;7.43;;;-3.30;99.90;;;;;;5015506;28;20326;-63
2024/01/11 01:05:33;;;;;;;12.67;7.30;;;-3.30;99.90;;;;;;5014229;28;20184;-62
2024/01/11 01:07:58;;;;;;;11.23;6.90;;;-3.30;99.90;;;;;;5012930;28;20280;-63
2024/01/11 01:10:26;;;;;;;10.47;6.97;;;-3.30;99.90;;;;;;5015057;28;20178;-63
2024/01/11 01:12:57;;;;;;;10.87;6.40;;;-3.30;99.90;;;;;;5014271;28;20182;-62
2024/01/11 01:15:22;;;;;;;11.13;6.60;;;-3.30;99.90;;;;;;5014875;28;20209;-63
2024/01/11 01:17:50;;;;;;;12.83;7.33;;;-3.30;99.90;;;;;;5011462;28;20234;-63
2024/01/11 01:20:18;;;;;;;12.43;7.57;;;-3.30;99.90;;;;;;5012836;28;20225;-63
2024/01/11 01:22:46;;;;;;;12.37;7.30;;;-3.40;99.90;;;;;;5018223;28;20186;-64
2024/01/11 01:25:11;;;;;;;13.00;7.10;;;-3.40;99.90;;;;;;5020338;28;20277;-63
2024/01/11 01:27:39;;;;;;;12.07;6.70;;;-3.40;99.90;;;;;;5021070;28;20232;-65
2024/01/11 01:30:06;;;;;;;11.13;6.90;;;-3.50;99.90;;;;;;5008930;28;20192;-65
2024/01/11 01:32:32;;;;;;;11.27;7.10;;;-3.50;99.90;;;;;;5018959;28;20201;-63
2024/01/11 01:35:00;;;;;;;11.07;6.77;;;-3.50;99.90;;;;;;5018142;28;20178;-63
2024/01/11 01:37:26;;;;;;;12.00;6.57;;;-3.50;99.90;;;;;;5016361;28;20198;-63
2024/01/11 01:39:56;;;;;;;11.10;6.40;;;-3.50;99.90;;;;;;5034678;28;20202;-63
2024/01/11 01:42:22;;;;;;;11.97;6.80;;;-3.50;99.90;;;;;;5017371;28;20166;-63
2024/01/11 01:44:50;;;;;;;10.17;6.47;;;-3.60;99.90;;;;;;5019328;28;20178;-63
2024/01/11 01:47:17;;;;;;;11.80;6.87;;;-3.60;99.90;;;;;;5018586;28;20251;-63
2024/01/11 01:49:44;;;;;;;10.63;6.33;;;-3.60;99.90;;;;;;5018068;28;20431;-62
2024/01/11 01:52:10;;;;;;;9.90;6.63;;;-3.60;99.90;;;;;;5014358;28;20198;-64
2024/01/11 01:54:36;;;;;;;11.63;7.00;;;-3.60;99.90;;;;;;5018029;28;20212;-65
2024/01/11 01:57:03;;;;;;;10.43;6.50;;;-3.60;99.90;;;;;;5017629;28;20197;-64
2024/01/11 01:59:30;;;;;;;11.37;7.40;;;-3.60;99.90;;;;;;5017498;28;20221;-63
2024/01/11 02:02:00;;;;;;;13.00;7.53;;;-3.70;99.90;;;;;;5014379;28;20210;-63
2024/01/11 02:04:27;;;;;;;13.77;8.13;;;-3.70;99.90;;;;;;5019482;28;20217;-63
2024/01/11 02:06:54;;;;;;;11.97;7.23;;;-3.70;99.90;;;;;;5019801;28;20264;-63
2024/01/11 02:09:22;;;;;;;12.20;7.13;;;-3.70;99.90;;;;;;5018062;28;20208;-61
2024/01/11 02:11:48;;;;;;;11.03;6.90;;;-3.70;99.90;;;;;;5014509;28;20296;-63
2024/01/11 02:14:14;;;;;;;10.10;6.67;;;-3.80;99.90;;;;;;5019086;28;20272;-63
2024/01/11 02:16:41;;;;;;;12.60;6.63;;;-3.80;99.90;;;;;;5018295;28;20228;-63
2024/01/11 02:19:19;;;;;;;12.70;7.10;;;-3.80;99.90;;;;;;5017924;28;20425;-64
2024/01/11 02:21:47;;;;;;;12.97;6.83;;;-3.80;99.90;;;;;;5013588;28;20404;-64
2024/01/11 02:24:13;;;;;;;8.80;5.87;;;-3.80;99.90;;;;;;5012159;28;20174;-63
2024/01/11 02:26:59;;;;;;;9.00;5.60;;;-3.80;99.90;;;;;;5015576;28;20202;-63
2024/01/11 02:29:25;;;;;;;9.67;5.63;;;-3.80;99.90;;;;;;5029828;28;20190;-64
2024/01/11 02:31:53;;;;;;;9.00;5.80;;;-3.80;99.90;;;;;;5017934;28;20187;-64
2024/01/11 02:34:19;;;;;;;9.90;5.93;;;-3.70;99.90;;;;;;5017199;28;20197;-64
2024/01/11 02:36:48;;;;;;;11.17;6.53;;;-3.80;99.90;;;;;;5018767;28;20202;-64
2024/01/11 02:39:17;;;;;;;10.50;6.13;;;-3.80;99.90;;;;;;5011836;28;20175;-64
2024/01/11 02:41:44;;;;;;;9.40;6.40;;;-3.80;99.90;;;;;;5013168;28;20175;-64
2024/01/11 02:44:09;;;;;;;10.87;5.97;;;-3.80;99.90;;;;;;5017352;28;20182;-63
2024/01/11 02:46:35;;;;;;;11.63;6.07;;;-3.80;99.90;;;;;;5016365;28;20198;-63
2024/01/11 02:49:03;;;;;;;10.33;6.33;;;-3.80;99.90;;;;;;5017317;28;20244;-63
2024/01/11 02:51:29;;;;;;;10.23;5.80;;;-3.80;99.90;;;;;;5016917;28;20193;-63
2024/01/11 02:53:54;;;;;;;10.23;6.00;;;-3.80;99.90;;;;;;5013052;28;20207;-64
2024/01/11 02:56:20;;;;;;;8.63;4.93;;;-3.80;99.90;;;;;;5014524;28;20206;-63
2024/01/11 02:58:45;;;;;;;9.80;5.97;;;-3.80;99.90;;;;;;5016674;28;20185;-63
2024/01/11 03:01:11;;;;;;;10.17;5.70;;;-3.80;99.90;;;;;;5017170;28;20190;-63
2024/01/11 03:03:37;;;;;;;9.77;6.00;;;-3.80;99.90;;;;;;5018532;28;20182;-64
2024/01/11 03:06:03;;;;;;;8.27;5.67;;;-3.80;99.90;;;;;;5013684;28;20202;-64
2024/01/11 03:08:31;;;;;;;9.03;5.83;;;-3.90;99.90;;;;;;5015166;28;20441;-63
2024/01/11 03:10:56;;;;;;;9.63;5.73;;;-3.80;99.90;;;;;;5015684;28;20186;-64
2024/01/11 03:13:23;;;;;;;10.07;6.27;;;-3.90;99.90;;;;;;5018249;28;20312;-62
2024/01/11 03:15:48;;;;;;;8.70;5.77;;;-3.90;99.90;;;;;;5006661;28;20257;-64
2024/01/11 03:18:16;;;;;;;11.50;5.90;;;-3.90;99.90;;;;;;5014180;28;20282;-64
2024/01/11 03:20:42;;;;;;;11.90;6.53;;;-3.90;99.90;;;;;;5016412;28;20181;-64
2024/01/11 03:23:10;;;;;;;11.73;6.70;;;-3.90;99.90;;;;;;5016130;28;20182;-64
2024/01/11 03:25:36;;;;;;;10.57;6.10;;;-3.90;99.90;;;;;;5015379;28;20181;-64
2024/01/11 03:28:06;;;;;;;9.93;5.97;;;-3.90;99.90;;;;;;5014580;28;20179;-63
2024/01/11 03:30:34;;;;;;;9.60;5.73;;;-3.90;99.90;;;;;;5018906;28;20170;-64
2024/01/11 03:33:04;;;;;;;10.43;6.30;;;-3.90;99.90;;;;;;5013688;28;20285;-63
2024/01/11 03:35:30;;;;;;;11.23;6.37;;;-3.90;99.90;;;;;;5014671;28;20182;-64
2024/01/11 03:37:56;;;;;;;12.67;6.43;;;-3.90;99.90;;;;;;5015741;28;20201;-64
2024/01/11 03:40:21;;;;;;;10.87;6.40;;;-3.90;99.90;;;;;;5015947;28;20194;-64
2024/01/11 03:42:47;;;;;;;11.03;6.73;;;-4.00;99.90;;;;;;5012026;28;20175;-63
2024/01/11 03:45:14;;;;;;;12.37;6.97;;;-3.90;99.90;;;;;;5014290;28;20196;-64
2024/01/11 03:47:42;;;;;;;10.47;6.10;;;-3.90;99.90;;;;;;5012197;28;20189;-64
2024/01/11 03:50:12;;;;;;;12.73;6.47;;;-4.00;99.90;;;;;;5016093;28;20285;-64
2024/01/11 03:52:40;;;;;;;10.70;6.83;;;-3.90;99.90;;;;;;5015294;28;20194;-64
2024/01/11 03:55:10;;;;;;;10.30;6.47;;;-3.90;99.90;;;;;;5014188;28;20192;-64
2024/01/11 03:57:36;;;;;;;9.87;6.37;;;-3.90;99.90;;;;;;5015488;28;20229;-64
2024/01/11 04:00:05;;;;;;;12.63;6.53;;;-3.90;99.90;;;;;;5016080;28;20229;-64
2024/01/11 04:02:36;;;;;;;9.73;6.17;;;-3.90;99.90;;;;;;5015461;28;20181;-64
2024/01/11 04:05:04;;;;;;;11.40;6.93;;;-3.90;99.90;;;;;;5016087;28;20174;-64
2024/01/11 04:07:29;;;;;;;10.27;5.77;;;-3.90;99.90;;;;;;5018958;28;20210;-64
2024/01/11 04:09:55;;;;;;;10.40;5.87;;;-3.90;99.90;;;;;;5022029;28;20272;-64
2024/01/11 04:12:20;;;;;;;9.83;5.73;;;-3.90;99.90;;;;;;5013535;28;20190;-64
2024/01/11 04:14:46;;;;;;;8.80;5.40;;;-3.90;99.90;;;;;;5014088;28;20224;-64
2024/01/11 04:17:12;;;;;;;9.60;5.83;;;-3.90;99.90;;;;;;5013539;28;20221;-64
2024/01/11 04:19:37;;;;;;;9.83;6.00;;;-3.90;99.90;;;;;;5013828;28;20198;-64
2024/01/11 04:22:05;;;;;;;11.77;6.70;;;-3.90;99.90;;;;;;5013901;28;20268;-64
2024/01/11 04:24:31;;;;;;;11.30;6.93;;;-3.90;99.90;;;;;;5011455;28;20350;-63
2024/01/11 04:26:56;;;;;;;10.23;6.23;;;-3.90;99.90;;;;;;5012128;28;20216;-64
2024/01/11 04:29:24;;;;;;;11.13;7.30;;;-3.90;99.90;;;;;;5014052;28;20409;-64
2024/01/11 04:31:52;;;;;;;11.13;6.77;;;-3.90;99.90;;;;;;5016775;28;20186;-64
2024/01/11 04:34:17;;;;;;;13.23;7.93;;;-3.90;99.90;;;;;;5016718;28;20209;-64
2024/01/11 04:36:43;;;;;;;12.93;7.60;;;-3.90;99.90;;;;;;5015432;28;20338;-68
2024/01/11 04:39:09;;;;;;;13.10;7.60;;;-3.90;99.90;;;;;;5015003;28;20189;-63
2024/01/11 04:41:38;;;;;;;12.70;7.37;;;-3.90;99.90;;;;;;5011894;28;20174;-65
2024/01/11 04:44:04;;;;;;;13.17;8.47;;;-4.00;99.90;;;;;;5011441;28;20293;-64
2024/01/11 04:46:29;;;;;;;15.03;8.93;;;-4.10;99.90;;;;;;5014811;28;20292;-65
2024/01/11 04:48:55;;;;;;;13.57;8.27;;;-4.00;99.90;;;;;;5013153;28;20194;-65
2024/01/11 04:51:25;;;;;;;12.77;7.93;;;-4.00;99.90;;;;;;5016236;28;20579;-65
2024/01/11 04:53:51;;;;;;;14.40;8.60;;;-4.00;99.90;;;;;;5014042;28;20197;-65
2024/01/11 04:56:17;;;;;;;14.63;8.27;;;-4.00;99.90;;;;;;5014242;28;20229;-65
2024/01/11 04:58:44;;;;;;;13.63;8.13;;;-4.00;99.90;;;;;;5015535;28;20166;-67
2024/01/11 05:01:14;;;;;;;14.13;7.87;;;-4.00;99.90;;;;;;5012636;28;20255;-67
2024/01/11 05:03:44;;;;;;;20.80;13.00;;;-4.10;99.90;;;;;;5014632;28;20321;-65
2024/01/11 05:06:17;;;;;;;27.87;15.77;;;-4.00;99.90;;;;;;5006975;28;20208;-65
2024/01/11 05:08:44;;;;;;;17.70;11.13;;;-4.00;99.90;;;;;;5014172;28;20185;-64
2024/01/11 05:11:20;;;;;;;15.13;9.90;;;-4.00;99.90;;;;;;5012748;28;20186;-64
2024/01/11 05:13:49;;;;;;;14.47;8.83;;;-4.10;99.90;;;;;;5022032;28;20200;-64
2024/01/11 05:16:25;;;;;;;15.10;8.30;;;-4.10;99.90;;;;;;5012901;28;20209;-64
2024/01/11 05:18:59;;;;;;;14.23;8.27;;;-4.10;99.90;;;;;;5013409;28;20185;-64
2024/01/11 05:21:25;;;;;;;12.03;7.40;;;-4.10;99.90;;;;;;5010524;28;20181;-65
2024/01/11 05:23:52;;;;;;;13.23;7.33;;;-4.10;99.90;;;;;;5014645;28;20200;-64
2024/01/11 05:26:21;;;;;;;13.83;7.67;;;-4.10;99.90;;;;;;5016204;28;20285;-65
2024/01/11 05:28:47;;;;;;;15.87;8.57;;;-4.10;99.90;;;;;;5015425;28;20194;-64
2024/01/11 05:31:19;;;;;;;17.33;9.53;;;-4.10;99.90;;;;;;5013720;28;20240;-64
2024/01/11 05:33:46;;;;;;;17.17;10.37;;;-4.10;99.90;;;;;;5028525;28;20201;-64
2024/01/11 05:36:14;;;;;;;14.83;9.27;;;-4.10;99.90;;;;;;5014647;28;20201;-63
2024/01/11 05:38:42;;;;;;;13.93;8.27;;;-4.10;99.90;;;;;;5017198;28;20189;-64
2024/01/11 05:41:08;;;;;;;13.27;7.83;;;-4.20;99.90;;;;;;5016746;28;20434;-63
2024/01/11 05:43:39;;;;;;;12.13;7.17;;;-4.10;99.90;;;;;;5015602;28;20178;-65
2024/01/11 05:46:07;;;;;;;13.60;7.00;;;-4.10;99.90;;;;;;5018543;28;20193;-66
2024/01/11 05:48:33;;;;;;;21.97;12.27;;;-4.10;99.90;;;;;;5014438;28;20171;-65
2024/01/11 05:51:01;;;;;;;13.17;8.23;;;-4.10;99.90;;;;;;5017524;28;20174;-65
2024/01/11 05:53:27;;;;;;;14.90;8.70;;;-4.10;99.90;;;;;;5002154;28;20203;-65
2024/01/11 05:55:56;;;;;;;13.97;8.57;;;-4.20;99.90;;;;;;5012650;28;20199;-65
2024/01/11 05:58:21;;;;;;;14.53;8.37;;;-4.20;99.90;;;;;;5008808;28;20189;-63
2024/01/11 06:00:47;;;;;;;15.03;7.87;;;-4.20;99.90;;;;;;5015855;28;20197;-62
2024/01/11 06:03:13;;;;;;;13.70;8.17;;;-4.20;99.90;;;;;;5016300;28;20197;-65
2024/01/11 06:05:39;;;;;;;12.27;7.30;;;-4.30;99.90;;;;;;5016032;28;20214;-64
2024/01/11 06:08:07;;;;;;;11.23;7.03;;;-4.30;99.90;;;;;;5008937;28;20189;-64
2024/01/11 06:10:36;;;;;;;11.43;6.53;;;-4.30;99.90;;;;;;5016936;28;20415;-64
2024/01/11 06:13:01;;;;;;;10.40;6.43;;;-4.30;99.90;;;;;;5017085;28;20197;-64
2024/01/11 06:15:27;;;;;;;12.50;7.13;;;-4.40;99.90;;;;;;5019168;28;20196;-64
2024/01/11 06:17:53;;;;;;;10.50;6.70;;;-4.40;99.90;;;;;;5014890;28;20271;-65
2024/01/11 06:20:20;;;;;;;12.77;6.93;;;-4.40;99.90;;;;;;5017313;28;20209;-64
2024/01/11 06:22:46;;;;;;;11.20;6.73;;;-4.40;99.90;;;;;;5017749;28;20178;-65
2024/01/11 06:25:14;;;;;;;11.40;6.50;;;-4.40;99.90;;;;;;5018694;28;20186;-65
2024/01/11 06:27:44;;;;;;;10.73;6.07;;;-4.50;99.90;;;;;;5017600;28;20524;-64
2024/01/11 06:30:10;;;;;;;11.30;6.53;;;-4.50;99.90;;;;;;5012358;28;20202;-65
2024/01/11 06:32:36;;;;;;;10.50;6.03;;;-4.50;99.90;;;;;;5016601;28;20186;-65
2024/01/11 06:35:05;;;;;;;11.63;6.57;;;-4.50;99.90;;;;;;5020592;28;20316;-64
2024/01/11 06:37:30;;;;;;;10.47;6.23;;;-4.50;99.90;;;;;;5019147;28;20197;-65
2024/01/11 06:39:59;;;;;;;12.10;7.53;;;-4.50;99.90;;;;;;5019583;28;20198;-64
2024/01/11 06:42:24;;;;;;;11.17;6.67;;;-4.30;99.90;;;;;;5020037;28;20504;-64
2024/01/11 06:44:50;;;;;;;11.57;6.47;;;-4.50;99.90;;;;;;5020022;28;20275;-65
2024/01/11 06:47:17;;;;;;;10.40;6.43;;;-4.50;99.90;;;;;;5021621;28;20209;-63
2024/01/11 06:49:45;;;;;;;10.13;6.17;;;-4.50;99.90;;;;;;5019620;28;20185;-66
2024/01/11 06:52:10;;;;;;;10.83;6.50;;;-4.50;99.90;;;;;;5019611;28;20178;-67
2024/01/11 06:54:36;;;;;;;11.60;6.90;;;-4.50;99.90;;;;;;5019365;28;20198;-65
2024/01/11 06:57:04;;;;;;;10.90;6.67;;;-4.40;99.90;;;;;;5019396;28;20210;-65
2024/01/11 06:59:29;;;;;;;10.37;6.53;;;-4.40;99.90;;;;;;5019235;28;20261;-64
2024/01/11 07:01:55;;;;;;;10.70;6.63;;;-4.40;99.90;;;;;;5019595;28;20269;-65
2024/01/11 07:04:21;;;;;;;9.47;6.07;;;-4.40;99.90;;;;;;5015744;28;20220;-63
2024/01/11 07:06:47;;;;;;;9.43;5.77;;;-4.40;99.90;;;;;;5017360;28;20217;-65
2024/01/11 07:09:12;;;;;;;10.77;6.00;;;-4.40;99.90;;;;;;5015824;28;20250;-65
2024/01/11 07:11:40;;;;;;;10.60;5.93;;;-4.40;99.90;;;;;;5002165;28;20170;-65
2024/01/11 07:14:07;;;;;;;10.67;5.90;;;-4.40;99.90;;;;;;4999554;28;20206;-66
2024/01/11 07:16:32;;;;;;;10.67;6.33;;;-4.40;99.90;;;;;;5001390;28;20214;-65
2024/01/11 07:18:58;;;;;;;13.03;6.90;;;-4.40;99.90;;;;;;5022744;28;20159;-65
2024/01/11 07:21:31;;;;;;;9.50;6.30;;;-4.40;99.90;;;;;;5015009;28;20177;-65
2024/01/11 07:23:57;;;;;;;10.33;6.30;;;-4.40;99.90;;;;;;5018956;28;20181;-64
2024/01/11 07:26:26;;;;;;;10.37;6.43;;;-4.40;99.90;;;;;;5019061;28;20178;-64
2024/01/11 07:28:54;;;;;;;11.33;6.43;;;-4.40;99.90;;;;;;5019148;28;20178;-65
2024/01/11 07:31:20;;;;;;;11.20;6.50;;;-4.40;99.90;;;;;;5018906;28;20177;-64
2024/01/11 07:33:46;;;;;;;10.23;6.33;;;-4.40;99.90;;;;;;5018840;28;20228;-65
2024/01/11 07:36:11;;;;;;;10.43;6.20;;;-4.40;99.90;;;;;;5018700;28;20210;-65
2024/01/11 07:38:37;;;;;;;11.23;6.73;;;-4.40;99.90;;;;;;5017054;28;20174;-64
2024/01/11 07:41:03;;;;;;;11.50;6.50;;;-4.40;99.90;;;;;;5018296;28;20252;-65
2024/01/11 07:43:34;;;;;;;10.77;6.47;;;-4.40;99.90;;;;;;5018422;28;20166;-63
2024/01/11 07:46:01;;;;;;;11.13;6.93;;;-4.40;99.90;;;;;;5035249;28;20170;-65
2024/01/11 07:48:29;;;;;;;11.37;7.00;;;-4.40;99.90;;;;;;5018250;28;20209;-64
2024/01/11 07:50:57;;;;;;;11.40;6.00;;;-4.40;99.90;;;;;;5019711;28;20451;-64
2024/01/11 07:53:25;;;;;;;11.07;7.33;;;-4.40;99.90;;;;;;5037880;28;20203;-64
2024/01/11 07:55:54;;;;;;;10.50;6.40;;;-4.40;99.90;;;;;;5022676;28;20269;-64
2024/01/11 07:58:20;;;;;;;11.77;6.70;;;-4.40;99.90;;;;;;5018072;28;20178;-65
2024/01/11 08:00:48;;;;;;;9.97;6.90;;;-4.40;99.90;;;;;;5017961;28;20204;-65
2024/01/11 08:03:14;;;;;;;12.07;6.90;;;-4.30;99.90;;;;;;5021932;28;20189;-65
2024/01/11 08:05:40;;;;;;;11.37;6.97;;;-4.40;99.90;;;;;;5017782;28;20197;-65
2024/01/11 08:08:08;;;;;;;11.47;7.07;;;-4.30;99.90;;;;;;5017964;28;20178;-64
2024/01/11 08:10:35;;;;;;;11.27;7.10;;;-4.30;99.90;;;;;;5017891;28;20170;-64
2024/01/11 08:13:03;;;;;;;14.53;8.20;;;-4.30;99.90;;;;;;5018008;28;20173;-65
2024/01/11 08:15:31;;;;;;;15.67;9.13;;;-4.30;99.90;;;;;;5018012;28;20180;-64
2024/01/11 08:17:57;;;;;;;15.27;8.60;;;-4.30;99.90;;;;;;5017495;28;20201;-64
2024/01/11 08:20:23;;;;;;;13.27;7.10;;;-4.20;99.90;;;;;;5017544;28;20267;-64
2024/01/11 08:22:49;;;;;;;12.00;6.90;;;-4.20;99.90;;;;;;5008216;28;20214;-68
2024/01/11 08:25:15;;;;;;;12.27;7.10;;;-4.20;99.90;;;;;;4997896;28;20197;-68
2024/01/11 08:27:40;;;;;;;10.47;6.90;;;-4.10;99.90;;;;;;4998090;28;20171;-68
2024/01/11 08:30:08;;;;;;;9.33;6.30;;;-4.10;99.90;;;;;;5013237;28;20174;-68
2024/01/11 08:32:38;;;;;;;11.30;7.23;;;-4.10;99.90;;;;;;5017953;28;20239;-67
2024/01/11 08:35:09;;;;;;;11.03;5.93;;;-4.10;99.90;;;;;;5016985;28;20177;-67
2024/01/11 08:37:35;;;;;;;9.97;6.33;;;-4.00;99.90;;;;;;5015905;28;20276;-68
2024/01/11 08:40:06;;;;;;;10.90;6.73;;;-4.00;99.90;;;;;;5012380;28;20234;-68
2024/01/11 08:42:32;;;;;;;11.07;6.33;;;-3.90;99.90;;;;;;4997732;28;20190;-64
2024/01/11 08:44:58;;;;;;;13.20;7.40;;;-3.90;99.90;;;;;;5016755;28;20177;-67
2024/01/11 08:47:28;;;;;;;10.80;7.00;;;-3.90;99.90;;;;;;5017425;28;20198;-67
2024/01/11 08:49:56;;;;;;;12.13;7.10;;;-3.90;99.90;;;;;;5017288;28;20205;-67
2024/01/11 08:52:23;;;;;;;9.67;5.90;;;-3.80;99.90;;;;;;5017170;28;20181;-66
2024/01/11 08:54:49;;;;;;;9.90;5.93;;;-3.80;99.90;;;;;;5017278;28;20182;-67
2024/01/11 08:57:15;;;;;;;10.27;6.10;;;-3.70;99.90;;;;;;5017410;28;20186;-68
2024/01/11 08:59:41;;;;;;;11.47;6.73;;;-3.60;99.90;;;;;;5004070;28;20347;-65
2024/01/11 09:02:07;;;;;;;10.70;6.03;;;-3.60;99.90;;;;;;5017113;28;20166;-67
2024/01/11 09:04:39;;;;;;;9.70;5.70;;;-3.60;99.90;;;;;;5017364;28;20209;-68
2024/01/11 09:07:07;;;;;;;8.40;5.83;;;-3.60;99.90;;;;;;5017241;28;20192;-68
2024/01/11 09:09:35;;;;;;;11.60;6.67;;;-3.50;99.90;;;;;;5017054;28;20189;-68
2024/01/11 09:12:03;;;;;;;9.73;5.93;;;-3.40;99.90;;;;;;5015646;28;20189;-68
2024/01/11 09:14:28;;;;;;;10.03;6.40;;;-3.10;99.90;;;;;;5016955;28;20170;-68
2024/01/11 09:16:56;;;;;;;11.50;7.23;;;-2.80;99.90;;;;;;5016749;28;20280;-68
2024/01/11 09:19:25;;;;;;;10.13;6.27;;;-2.50;99.90;;;;;;5017284;28;20205;-68
2024/01/11 09:21:55;;;;;;;9.80;6.30;;;-2.20;99.90;;;;;;5016958;28;20184;-68
2024/01/11 09:24:21;;;;;;;10.40;6.23;;;-2.00;99.90;;;;;;5016982;28;20174;-68
2024/01/11 09:26:49;;;;;;;11.80;6.83;;;-1.90;99.90;;;;;;5017069;28;20180;-67
2024/01/11 09:29:15;;;;;;;10.10;6.70;;;-1.70;99.90;;;;;;5016903;28;20209;-66
2024/01/11 09:31:42;;;;;;;11.63;6.73;;;-1.50;99.90;;;;;;5017104;28;20235;-69
2024/01/11 09:34:10;;;;;;;11.87;7.47;;;-1.30;99.90;;;;;;5016925;28;20210;-71
2024/01/11 09:36:39;;;;;;;11.83;7.07;;;-1.10;99.90;;;;;;5017160;28;20205;-69
2024/01/11 09:39:05;;;;;;;13.00;7.63;;;-0.90;99.90;;;;;;5017026;28;20170;-67
2024/01/11 09:41:36;;;;;;;12.77;7.03;;;-0.80;99.90;;;;;;5018211;28;20174;-68
2024/01/11 09:44:07;;;;;;;13.50;7.53;;;-0.60;99.90;;;;;;5020877;28;20205;-69
2024/01/11 09:46:35;;;;;;;11.30;7.83;;;-0.30;99.90;;;;;;5014877;28;20202;-68
2024/01/11 09:49:04;;;;;;;11.57;7.83;;;-0.20;99.90;;;;;;5020806;28;20264;-69
2024/01/11 09:51:29;;;;;;;13.70;7.70;;;0.00;99.90;;;;;;5020684;28;20205;-69
2024/01/11 09:53:56;;;;;;;12.80;8.13;;;0.00;99.90;;;;;;5020734;28;20380;-68
2024/01/11 09:56:23;;;;;;;12.53;8.30;;;0.10;99.90;;;;;;5020456;28;20206;-66
2024/01/11 09:58:52;;;;;;;11.87;8.20;;;0.10;99.90;;;;;;5020694;28;20216;-67
2024/01/11 10:01:18;;;;;;;13.50;8.87;;;0.20;99.90;;;;;;5020385;28;20174;-67
2024/01/11 10:03:47;;;;;;;15.17;9.20;;;0.30;99.90;;;;;;5020233;28;20201;-69
2024/01/11 10:06:16;;;;;;;13.40;9.17;;;0.40;99.90;;;;;;5020475;28;20189;-68
2024/01/11 10:08:41;;;;;;;14.57;9.40;;;0.50;99.90;;;;;;5020191;28;20225;-69
2024/01/11 10:11:09;;;;;;;13.87;8.87;;;0.50;99.90;;;;;;5020363;28;20279;-68
2024/01/11 10:13:36;;;;;;;14.77;10.03;;;0.60;99.90;;;;;;5020124;28;20182;-66
2024/01/11 10:16:09;;;;;;;13.93;9.03;;;0.70;99.90;;;;;;5020041;28;20205;-68
2024/01/11 10:18:37;;;;;;;15.33;10.57;;;0.80;99.90;;;;;;5019718;28;20181;-66
2024/01/11 10:21:03;;;;;;;14.50;9.43;;;0.80;99.90;;;;;;5020066;28;20268;-68
2024/01/11 10:23:29;;;;;;;15.83;9.33;;;0.90;99.90;;;;;;5020163;28;20178;-66
2024/01/11 10:25:57;;;;;;;13.67;9.20;;;1.00;99.90;;;;;;5019779;28;20209;-68
2024/01/11 10:28:27;;;;;;;14.47;9.43;;;1.10;99.90;;;;;;5019931;28;20231;-68
2024/01/11 10:30:53;;;;;;;16.13;10.30;;;1.10;99.90;;;;;;5019948;28;20469;-66
2024/01/11 10:33:24;;;;;;;16.67;10.50;;;1.20;99.90;;;;;;5037382;28;20178;-68
2024/01/11 10:35:52;;;;;;;16.07;10.80;;;1.30;99.90;;;;;;5019472;28;20185;-68
2024/01/11 10:38:20;;;;;;;15.80;10.63;;;1.40;99.90;;;;;;5019316;28;20206;-67
2024/01/11 10:40:46;;;;;;;16.17;10.80;;;1.50;99.90;;;;;;5020472;28;20179;-68
2024/01/11 10:43:15;;;;;;;15.43;10.53;;;1.60;99.90;;;;;;4999932;28;20225;-68
2024/01/11 10:45:44;;;;;;;16.80;11.07;;;1.70;99.90;;;;;;4999691;28;20294;-68
2024/01/11 10:48:15;;;;;;;16.60;10.67;;;1.80;99.90;;;;;;5017201;28;20246;-69
2024/01/11 10:50:45;;;;;;;14.50;10.43;;;1.90;99.90;;;;;;5000088;28;20174;-69
2024/01/11 10:53:25;;;;;;;14.10;10.43;;;1.90;99.90;;;;;;5017407;28;20178;-69
2024/01/11 10:55:55;;;;;;;17.50;10.87;;;2.00;99.90;;;;;;5001739;28;20288;-69
2024/01/11 10:58:22;;;;;;;16.83;11.50;;;2.10;99.90;;;;;;5012771;28;20362;-68
2024/01/11 11:00:54;;;;;;;18.77;11.87;;;2.20;99.90;;;;;;5021177;28;20198;-69
2024/01/11 11:03:20;;;;;;;16.67;11.47;;;2.20;99.90;;;;;;5019340;28;20198;-68
2024/01/11 11:05:50;;;;;;;18.07;11.47;;;2.30;99.90;;;;;;5019484;28;20170;-68
2024/01/11 11:08:20;;;;;;;14.50;10.50;;;2.40;99.90;;;;;;5019373;28;20174;-67
2024/01/11 11:10:48;;;;;;;17.33;11.47;;;2.40;99.90;;;;;;5018931;28;20188;-69
2024/01/11 11:13:18;;;;;;;18.83;12.10;;;2.50;99.90;;;;;;5018984;28;20178;-70
2024/01/11 11:15:53;;;;;;;16.40;10.83;;;2.50;99.90;;;;;;5019022;28;20182;-68
2024/01/11 11:18:23;;;;;;;16.03;11.13;;;2.70;99.90;;;;;;5019089;28;20217;-69
2024/01/11 11:20:51;;;;;;;16.73;10.33;;;2.70;99.90;;;;;;5015737;28;20375;-69
2024/01/11 11:23:18;;;;;;;15.97;10.87;;;2.70;99.90;;;;;;4999204;28;20194;-70
2024/01/11 11:25:55;;;;;;;18.97;12.20;;;2.80;99.90;;;;;;5002550;28;20327;-70
2024/01/11 11:28:24;;;;;;;17.77;11.27;;;2.80;99.90;;;;;;5012200;28;20439;-69
2024/01/11 11:30:57;;;;;;;19.27;11.73;;;2.90;99.90;;;;;;4999164;28;20179;-67
2024/01/11 11:33:26;;;;;;;18.30;12.20;;;2.90;99.90;;;;;;5003833;28;20305;-69
2024/01/11 11:36:02;;;;;;;19.43;12.33;;;2.90;99.90;;;;;;5018536;28;20190;-69
2024/01/11 11:38:30;;;;;;;18.53;12.43;;;3.00;99.90;;;;;;5003395;28;20434;-70
2024/01/11 11:41:00;;;;;;;18.60;12.50;;;3.00;99.90;;;;;;5018539;28;20240;-70
2024/01/11 11:43:31;;;;;;;17.83;11.83;;;3.00;99.90;;;;;;5018695;28;20253;-67
2024/01/11 11:46:07;;;;;;;20.10;12.60;;;3.00;99.90;;;;;;5018317;28;20178;-69
2024/01/11 11:48:34;;;;;;;18.63;12.60;;;3.20;99.90;;;;;;5018644;28;20268;-70
2024/01/11 11:51:09;;;;;;;18.73;12.97;;;3.40;99.90;;;;;;5018424;28;20178;-69
2024/01/11 11:53:39;;;;;;;21.13;13.30;;;3.50;99.90;;;;;;5018401;28;20166;-69
2024/01/11 11:56:06;;;;;;;20.30;13.00;;;3.60;99.90;;;;;;5018540;28;20221;-70
2024/01/11 11:58:36;;;;;;;18.47;12.40;;;3.70;99.90;;;;;;5018130;28;20296;-69
2024/01/11 12:01:03;;;;;;;20.70;13.23;;;3.80;99.90;;;;;;5017884;28;20174;-70
2024/01/11 12:03:33;;;;;;;22.03;14.10;;;4.00;99.90;;;;;;5007749;28;20284;-70
2024/01/11 12:06:02;;;;;;;19.77;14.13;;;4.10;99.90;;;;;;5033887;28;20213;-69
2024/01/11 12:08:28;;;;;;;18.97;12.63;;;4.20;99.90;;;;;;5017441;28;20174;-68
2024/01/11 12:10:56;;;;;;;20.37;12.80;;;4.20;99.90;;;;;;5017944;28;20200;-70
2024/01/11 12:13:23;;;;;;;20.10;13.33;;;4.40;99.90;;;;;;5017941;28;20170;-70
2024/01/11 12:15:49;;;;;;;19.23;13.57;;;4.60;99.90;;;;;;5017697;28;20205;-70
2024/01/11 12:18:17;;;;;;;21.17;13.30;;;4.90;99.90;;;;;;5011748;28;20214;-70
2024/01/11 12:20:43;;;;;;;21.37;14.80;;;5.00;99.90;;;;;;5017718;28;20291;-69
2024/01/11 12:23:08;;;;;;;24.77;15.50;;;5.10;99.90;;;;;;5017899;28;20269;-70
2024/01/11 12:25:37;;;;;;;22.47;15.63;;;5.20;99.90;;;;;;5017802;28;20182;-70
2024/01/11 12:28:06;;;;;;;22.43;15.00;;;5.20;99.90;;;;;;5017855;28;20456;-68
2024/01/11 12:30:34;;;;;;;23.87;16.83;;;5.30;99.90;;;;;;5017567;28;20189;-70
2024/01/11 12:33:02;;;;;;;25.80;17.30;;;5.40;99.90;;;;;;5017240;28;20209;-70
2024/01/11 12:35:31;;;;;;;25.20;17.07;;;5.40;99.90;;;;;;5013555;28;20274;-67
2024/01/11 12:38:11;;;;;;;28.57;17.87;;;5.40;99.90;;;;;;5008979;28;20292;-70
2024/01/11 12:40:40;;;;;;;29.77;19.43;;;5.40;99.90;;;;;;5013246;28;20181;-68